sensor_id;sensor_type;location;lat;lon;timestamp;P1;durP1;ratioP1;P2;durP2;ratioP2
37201;SDS011;37799;52.390;6.136;2022-11-15T00:00:23;14.18;;;3.42;;
37201;SDS011;37799;52.390;6.136;2022-11-15T00:02:49;11.13;;;4.13;;
37201;SDS011;37799;52.390;6.136;2022-11-15T00:05:14;12.82;;;3.92;;
37201;SDS011;37799;52.390;6.136;2022-11-15T00:07:39;13.57;;;3.85;;
37201;SDS011;37799;52.390;6.136;2022-11-15T00:10:05;10.75;;;3.53;;
37201;SDS011;37799;52.390;6.136;2022-11-15T00:12:30;11.27;;;3.28;;
37201;SDS011;37799;52.390;6.136;2022-11-15T00:14:56;9.70;;;3.28;;
37201;SDS011;37799;52.390;6.136;2022-11-15T00:17:21;11.23;;;4.00;;
37201;SDS011;37799;52.390;6.136;2022-11-15T00:19:46;13.82;;;4.47;;
37201;SDS011;37799;52.390;6.136;2022-11-15T00:22:12;11.55;;;3.88;;
37201;SDS011;37799;52.390;6.136;2022-11-15T00:24:37;12.57;;;4.25;;
37201;SDS011;37799;52.390;6.136;2022-11-15T00:27:02;14.20;;;4.28;;
37201;SDS011;37799;52.390;6.136;2022-11-15T00:29:27;11.82;;;2.97;;
37201;SDS011;37799;52.390;6.136;2022-11-15T00:31:53;13.68;;;4.10;;
37201;SDS011;37799;52.390;6.136;2022-11-15T00:34:18;13.75;;;4.03;;
37201;SDS011;37799;52.390;6.136;2022-11-15T00:36:43;13.00;;;4.07;;
37201;SDS011;37799;52.390;6.136;2022-11-15T00:39:09;15.00;;;3.47;;
37201;SDS011;37799;52.390;6.136;2022-11-15T00:41:34;13.73;;;4.57;;
37201;SDS011;37799;52.390;6.136;2022-11-15T00:43:59;11.85;;;4.25;;
37201;SDS011;37799;52.390;6.136;2022-11-15T00:46:24;18.05;;;5.45;;
37201;SDS011;37799;52.390;6.136;2022-11-15T00:48:50;15.77;;;3.72;;
37201;SDS011;37799;52.390;6.136;2022-11-15T00:51:15;15.10;;;4.35;;
37201;SDS011;37799;52.390;6.136;2022-11-15T00:53:40;15.65;;;3.95;;
37201;SDS011;37799;52.390;6.136;2022-11-15T00:56:06;16.40;;;4.55;;
37201;SDS011;37799;52.390;6.136;2022-11-15T00:58:31;13.20;;;3.83;;
37201;SDS011;37799;52.390;6.136;2022-11-15T01:01:04;15.60;;;4.15;;
37201;SDS011;37799;52.390;6.136;2022-11-15T01:03:32;16.75;;;4.15;;
37201;SDS011;37799;52.390;6.136;2022-11-15T01:06:00;12.27;;;3.60;;
37201;SDS011;37799;52.390;6.136;2022-11-15T01:08:26;13.75;;;4.03;;
37201;SDS011;37799;52.390;6.136;2022-11-15T01:10:51;13.45;;;3.92;;
37201;SDS011;37799;52.390;6.136;2022-11-15T01:13:16;18.17;;;3.95;;
37201;SDS011;37799;52.390;6.136;2022-11-15T01:15:42;17.88;;;4.75;;
37201;SDS011;37799;52.390;6.136;2022-11-15T01:18:07;15.43;;;4.15;;
37201;SDS011;37799;52.390;6.136;2022-11-15T01:20:33;13.85;;;4.18;;
37201;SDS011;37799;52.390;6.136;2022-11-15T01:22:59;15.20;;;4.40;;
37201;SDS011;37799;52.390;6.136;2022-11-15T01:25:24;17.92;;;3.78;;
37201;SDS011;37799;52.390;6.136;2022-11-15T01:27:49;13.45;;;3.80;;
37201;SDS011;37799;52.390;6.136;2022-11-15T01:30:15;18.83;;;4.05;;
37201;SDS011;37799;52.390;6.136;2022-11-15T01:32:40;11.90;;;4.47;;
37201;SDS011;37799;52.390;6.136;2022-11-15T01:35:05;14.27;;;3.92;;
37201;SDS011;37799;52.390;6.136;2022-11-15T01:37:31;15.93;;;5.78;;
37201;SDS011;37799;52.390;6.136;2022-11-15T01:39:56;18.40;;;4.78;;
37201;SDS011;37799;52.390;6.136;2022-11-15T01:42:21;11.82;;;4.00;;
37201;SDS011;37799;52.390;6.136;2022-11-15T01:44:47;12.98;;;4.35;;
37201;SDS011;37799;52.390;6.136;2022-11-15T01:47:20;18.75;;;4.57;;
37201;SDS011;37799;52.390;6.136;2022-11-15T01:49:51;14.30;;;4.90;;
37201;SDS011;37799;52.390;6.136;2022-11-15T01:52:22;14.75;;;4.90;;
37201;SDS011;37799;52.390;6.136;2022-11-15T01:54:50;15.43;;;4.65;;
37201;SDS011;37799;52.390;6.136;2022-11-15T01:57:21;14.23;;;4.15;;
37201;SDS011;37799;52.390;6.136;2022-11-15T01:59:47;16.75;;;4.80;;
37201;SDS011;37799;52.390;6.136;2022-11-15T02:02:12;14.35;;;4.00;;
37201;SDS011;37799;52.390;6.136;2022-11-15T02:04:42;14.40;;;4.45;;
37201;SDS011;37799;52.390;6.136;2022-11-15T02:07:10;15.15;;;4.20;;
37201;SDS011;37799;52.390;6.136;2022-11-15T02:09:38;15.63;;;4.60;;
37201;SDS011;37799;52.390;6.136;2022-11-15T02:12:03;18.23;;;5.07;;
37201;SDS011;37799;52.390;6.136;2022-11-15T02:14:30;13.85;;;4.70;;
37201;SDS011;37799;52.390;6.136;2022-11-15T02:22:21;14.13;;;4.47;;
37201;SDS011;37799;52.390;6.136;2022-11-15T02:30:42;12.48;;;4.80;;
37201;SDS011;37799;52.390;6.136;2022-11-15T02:41:44;19.80;;;4.80;;
37201;SDS011;37799;52.390;6.136;2022-11-15T02:44:21;15.13;;;4.85;;
37201;SDS011;37799;52.390;6.136;2022-11-15T02:47:06;17.83;;;6.35;;
37201;SDS011;37799;52.390;6.136;2022-11-15T02:49:42;14.23;;;4.68;;
37201;SDS011;37799;52.390;6.136;2022-11-15T02:52:14;10.95;;;3.65;;
37201;SDS011;37799;52.390;6.136;2022-11-15T02:54:54;19.58;;;5.30;;
37201;SDS011;37799;52.390;6.136;2022-11-15T02:57:25;16.92;;;4.85;;
37201;SDS011;37799;52.390;6.136;2022-11-15T03:00:05;14.07;;;5.22;;
37201;SDS011;37799;52.390;6.136;2022-11-15T03:05:14;13.43;;;4.95;;
37201;SDS011;37799;52.390;6.136;2022-11-15T03:13:36;14.18;;;4.70;;
37201;SDS011;37799;52.390;6.136;2022-11-15T03:16:08;16.75;;;5.47;;
37201;SDS011;37799;52.390;6.136;2022-11-15T03:18:45;17.58;;;5.07;;
37201;SDS011;37799;52.390;6.136;2022-11-15T03:21:16;17.40;;;5.80;;
37201;SDS011;37799;52.390;6.136;2022-11-15T03:23:45;14.10;;;4.75;;
37201;SDS011;37799;52.390;6.136;2022-11-15T03:26:14;14.63;;;5.22;;
37201;SDS011;37799;52.390;6.136;2022-11-15T03:28:50;17.27;;;5.35;;
37201;SDS011;37799;52.390;6.136;2022-11-15T03:31:27;14.25;;;4.15;;
37201;SDS011;37799;52.390;6.136;2022-11-15T03:34:20;17.10;;;5.18;;
37201;SDS011;37799;52.390;6.136;2022-11-15T03:36:46;15.10;;;5.78;;
37201;SDS011;37799;52.390;6.136;2022-11-15T03:39:12;12.90;;;5.15;;
37201;SDS011;37799;52.390;6.136;2022-11-15T03:41:50;14.32;;;5.22;;
37201;SDS011;37799;52.390;6.136;2022-11-15T03:44:27;16.45;;;4.72;;
37201;SDS011;37799;52.390;6.136;2022-11-15T03:49:49;17.77;;;6.13;;
37201;SDS011;37799;52.390;6.136;2022-11-15T03:52:18;12.85;;;4.70;;
37201;SDS011;37799;52.390;6.136;2022-11-15T03:54:53;11.85;;;4.53;;
37201;SDS011;37799;52.390;6.136;2022-11-15T03:57:20;13.10;;;5.28;;
37201;SDS011;37799;52.390;6.136;2022-11-15T03:59:45;14.70;;;5.38;;
37201;SDS011;37799;52.390;6.136;2022-11-15T04:02:11;15.73;;;5.05;;
37201;SDS011;37799;52.390;6.136;2022-11-15T04:04:37;15.57;;;5.18;;
37201;SDS011;37799;52.390;6.136;2022-11-15T04:07:02;13.35;;;4.47;;
37201;SDS011;37799;52.390;6.136;2022-11-15T04:09:27;12.43;;;4.22;;
37201;SDS011;37799;52.390;6.136;2022-11-15T04:11:52;16.58;;;5.07;;
37201;SDS011;37799;52.390;6.136;2022-11-15T04:14:18;12.77;;;4.80;;
37201;SDS011;37799;52.390;6.136;2022-11-15T04:16:43;15.07;;;5.53;;
37201;SDS011;37799;52.390;6.136;2022-11-15T04:19:08;18.17;;;5.63;;
37201;SDS011;37799;52.390;6.136;2022-11-15T04:21:52;15.27;;;5.53;;
37201;SDS011;37799;52.390;6.136;2022-11-15T04:24:36;15.77;;;4.82;;
37201;SDS011;37799;52.390;6.136;2022-11-15T04:27:01;15.15;;;4.97;;
37201;SDS011;37799;52.390;6.136;2022-11-15T04:29:27;15.77;;;5.35;;
37201;SDS011;37799;52.390;6.136;2022-11-15T04:32:02;14.68;;;4.90;;
37201;SDS011;37799;52.390;6.136;2022-11-15T04:34:28;14.52;;;5.15;;
37201;SDS011;37799;52.390;6.136;2022-11-15T04:36:54;13.25;;;5.00;;
37201;SDS011;37799;52.390;6.136;2022-11-15T04:39:37;14.48;;;5.25;;
37201;SDS011;37799;52.390;6.136;2022-11-15T04:42:06;14.68;;;5.00;;
37201;SDS011;37799;52.390;6.136;2022-11-15T04:44:32;14.90;;;5.22;;
37201;SDS011;37799;52.390;6.136;2022-11-15T04:46:57;13.25;;;4.00;;
37201;SDS011;37799;52.390;6.136;2022-11-15T04:49:22;14.43;;;4.95;;
37201;SDS011;37799;52.390;6.136;2022-11-15T04:51:48;13.38;;;4.88;;
37201;SDS011;37799;52.390;6.136;2022-11-15T04:54:13;18.52;;;5.53;;
37201;SDS011;37799;52.390;6.136;2022-11-15T04:56:38;13.30;;;5.07;;
37201;SDS011;37799;52.390;6.136;2022-11-15T04:59:03;14.25;;;4.68;;
37201;SDS011;37799;52.390;6.136;2022-11-15T05:01:29;12.48;;;5.13;;
37201;SDS011;37799;52.390;6.136;2022-11-15T05:03:54;14.43;;;5.68;;
37201;SDS011;37799;52.390;6.136;2022-11-15T05:06:38;14.60;;;4.85;;
37201;SDS011;37799;52.390;6.136;2022-11-15T05:09:03;13.13;;;4.93;;
37201;SDS011;37799;52.390;6.136;2022-11-15T05:11:29;12.45;;;4.38;;
37201;SDS011;37799;52.390;6.136;2022-11-15T05:13:54;14.82;;;4.85;;
37201;SDS011;37799;52.390;6.136;2022-11-15T05:16:20;13.20;;;3.72;;
37201;SDS011;37799;52.390;6.136;2022-11-15T05:18:45;14.48;;;4.47;;
37201;SDS011;37799;52.390;6.136;2022-11-15T05:21:12;17.13;;;4.85;;
37201;SDS011;37799;52.390;6.136;2022-11-15T05:23:39;14.25;;;5.50;;
37201;SDS011;37799;52.390;6.136;2022-11-15T05:26:05;15.15;;;5.30;;
37201;SDS011;37799;52.390;6.136;2022-11-15T05:28:32;15.50;;;5.03;;
37201;SDS011;37799;52.390;6.136;2022-11-15T05:31:04;16.50;;;5.60;;
37201;SDS011;37799;52.390;6.136;2022-11-15T05:33:40;13.55;;;4.18;;
37201;SDS011;37799;52.390;6.136;2022-11-15T05:36:09;13.45;;;4.40;;
37201;SDS011;37799;52.390;6.136;2022-11-15T05:38:40;12.30;;;3.95;;
37201;SDS011;37799;52.390;6.136;2022-11-15T05:41:06;13.45;;;5.32;;
37201;SDS011;37799;52.390;6.136;2022-11-15T05:43:32;11.30;;;3.85;;
37201;SDS011;37799;52.390;6.136;2022-11-15T05:46:00;15.98;;;4.80;;
37201;SDS011;37799;52.390;6.136;2022-11-15T05:48:26;12.35;;;4.32;;
37201;SDS011;37799;52.390;6.136;2022-11-15T05:50:52;12.40;;;4.53;;
37201;SDS011;37799;52.390;6.136;2022-11-15T05:53:18;14.80;;;5.72;;
37201;SDS011;37799;52.390;6.136;2022-11-15T05:55:46;16.27;;;5.03;;
37201;SDS011;37799;52.390;6.136;2022-11-15T05:58:12;15.52;;;5.30;;
37201;SDS011;37799;52.390;6.136;2022-11-15T06:00:37;13.40;;;4.35;;
37201;SDS011;37799;52.390;6.136;2022-11-15T06:03:03;14.32;;;4.93;;
37201;SDS011;37799;52.390;6.136;2022-11-15T06:05:28;13.45;;;4.57;;
37201;SDS011;37799;52.390;6.136;2022-11-15T06:07:57;12.95;;;5.13;;
37201;SDS011;37799;52.390;6.136;2022-11-15T06:10:23;13.43;;;4.43;;
37201;SDS011;37799;52.390;6.136;2022-11-15T06:12:55;14.27;;;4.70;;
37201;SDS011;37799;52.390;6.136;2022-11-15T06:15:23;12.38;;;5.07;;
37201;SDS011;37799;52.390;6.136;2022-11-15T06:17:49;13.13;;;4.55;;
37201;SDS011;37799;52.390;6.136;2022-11-15T06:20:14;13.73;;;5.25;;
37201;SDS011;37799;52.390;6.136;2022-11-15T06:22:39;14.57;;;5.10;;
37201;SDS011;37799;52.390;6.136;2022-11-15T06:25:05;13.60;;;4.40;;
37201;SDS011;37799;52.390;6.136;2022-11-15T06:27:30;15.07;;;5.22;;
37201;SDS011;37799;52.390;6.136;2022-11-15T06:29:55;12.02;;;4.50;;
37201;SDS011;37799;52.390;6.136;2022-11-15T06:32:21;15.65;;;5.18;;
37201;SDS011;37799;52.390;6.136;2022-11-15T06:34:46;12.18;;;4.15;;
37201;SDS011;37799;52.390;6.136;2022-11-15T06:37:11;11.13;;;3.92;;
37201;SDS011;37799;52.390;6.136;2022-11-15T06:39:36;13.63;;;5.38;;
37201;SDS011;37799;52.390;6.136;2022-11-15T06:42:02;14.15;;;5.38;;
37201;SDS011;37799;52.390;6.136;2022-11-15T06:44:27;14.00;;;4.53;;
37201;SDS011;37799;52.390;6.136;2022-11-15T06:46:52;11.70;;;4.07;;
37201;SDS011;37799;52.390;6.136;2022-11-15T06:49:17;13.63;;;5.07;;
37201;SDS011;37799;52.390;6.136;2022-11-15T06:51:43;16.10;;;5.13;;
37201;SDS011;37799;52.390;6.136;2022-11-15T06:54:08;12.00;;;4.47;;
37201;SDS011;37799;52.390;6.136;2022-11-15T06:56:33;16.23;;;5.97;;
37201;SDS011;37799;52.390;6.136;2022-11-15T06:58:59;13.55;;;4.40;;
37201;SDS011;37799;52.390;6.136;2022-11-15T07:01:24;12.70;;;5.05;;
37201;SDS011;37799;52.390;6.136;2022-11-15T07:03:49;11.73;;;4.28;;
37201;SDS011;37799;52.390;6.136;2022-11-15T07:06:15;12.65;;;5.32;;
37201;SDS011;37799;52.390;6.136;2022-11-15T07:08:40;14.63;;;4.85;;
37201;SDS011;37799;52.390;6.136;2022-11-15T07:11:07;12.82;;;4.55;;
37201;SDS011;37799;52.390;6.136;2022-11-15T07:13:33;12.77;;;4.72;;
37201;SDS011;37799;52.390;6.136;2022-11-15T07:16:07;12.85;;;4.97;;
37201;SDS011;37799;52.390;6.136;2022-11-15T07:18:35;13.23;;;5.20;;
37201;SDS011;37799;52.390;6.136;2022-11-15T07:21:07;13.15;;;4.63;;
37201;SDS011;37799;52.390;6.136;2022-11-15T07:23:38;13.60;;;4.72;;
37201;SDS011;37799;52.390;6.136;2022-11-15T07:26:04;13.18;;;3.97;;
37201;SDS011;37799;52.390;6.136;2022-11-15T07:28:30;15.35;;;5.25;;
37201;SDS011;37799;52.390;6.136;2022-11-15T07:30:55;16.73;;;5.45;;
37201;SDS011;37799;52.390;6.136;2022-11-15T07:33:20;14.48;;;4.50;;
37201;SDS011;37799;52.390;6.136;2022-11-15T07:35:46;13.02;;;5.63;;
37201;SDS011;37799;52.390;6.136;2022-11-15T07:38:14;14.10;;;4.63;;
37201;SDS011;37799;52.390;6.136;2022-11-15T07:40:40;12.30;;;5.03;;
37201;SDS011;37799;52.390;6.136;2022-11-15T07:43:06;13.38;;;4.70;;
37201;SDS011;37799;52.390;6.136;2022-11-15T07:45:33;15.88;;;4.90;;
37201;SDS011;37799;52.390;6.136;2022-11-15T07:47:59;16.35;;;5.65;;
37201;SDS011;37799;52.390;6.136;2022-11-15T07:50:25;14.27;;;4.78;;
37201;SDS011;37799;52.390;6.136;2022-11-15T07:52:57;13.05;;;4.43;;
37201;SDS011;37799;52.390;6.136;2022-11-15T07:55:24;13.35;;;4.72;;
37201;SDS011;37799;52.390;6.136;2022-11-15T07:57:52;13.48;;;5.10;;
37201;SDS011;37799;52.390;6.136;2022-11-15T08:00:17;13.60;;;4.55;;
37201;SDS011;37799;52.390;6.136;2022-11-15T08:02:43;14.45;;;4.88;;
37201;SDS011;37799;52.390;6.136;2022-11-15T08:05:08;11.95;;;4.25;;
37201;SDS011;37799;52.390;6.136;2022-11-15T08:07:34;14.27;;;4.57;;
37201;SDS011;37799;52.390;6.136;2022-11-15T08:09:59;12.70;;;5.13;;
37201;SDS011;37799;52.390;6.136;2022-11-15T08:12:26;13.85;;;4.95;;
37201;SDS011;37799;52.390;6.136;2022-11-15T08:14:54;14.98;;;5.55;;
37201;SDS011;37799;52.390;6.136;2022-11-15T08:17:21;13.88;;;4.75;;
37201;SDS011;37799;52.390;6.136;2022-11-15T08:19:47;12.68;;;4.72;;
37201;SDS011;37799;52.390;6.136;2022-11-15T08:22:12;13.45;;;4.90;;
37201;SDS011;37799;52.390;6.136;2022-11-15T08:24:38;13.13;;;4.95;;
37201;SDS011;37799;52.390;6.136;2022-11-15T08:27:03;12.90;;;5.00;;
37201;SDS011;37799;52.390;6.136;2022-11-15T08:29:29;11.95;;;4.88;;
37201;SDS011;37799;52.390;6.136;2022-11-15T08:31:54;13.77;;;4.45;;
37201;SDS011;37799;52.390;6.136;2022-11-15T08:34:20;12.93;;;4.75;;
37201;SDS011;37799;52.390;6.136;2022-11-15T08:36:46;10.40;;;3.75;;
37201;SDS011;37799;52.390;6.136;2022-11-15T08:39:11;15.00;;;3.88;;
37201;SDS011;37799;52.390;6.136;2022-11-15T08:41:37;12.00;;;4.28;;
37201;SDS011;37799;52.390;6.136;2022-11-15T08:44:03;11.57;;;4.55;;
37201;SDS011;37799;52.390;6.136;2022-11-15T08:46:29;10.25;;;3.53;;
37201;SDS011;37799;52.390;6.136;2022-11-15T08:48:54;11.32;;;4.00;;
37201;SDS011;37799;52.390;6.136;2022-11-15T08:51:19;12.80;;;4.95;;
37201;SDS011;37799;52.390;6.136;2022-11-15T08:53:45;11.63;;;4.55;;
37201;SDS011;37799;52.390;6.136;2022-11-15T08:56:10;23.60;;;7.35;;
37201;SDS011;37799;52.390;6.136;2022-11-15T08:58:37;15.70;;;5.93;;
37201;SDS011;37799;52.390;6.136;2022-11-15T09:01:03;12.60;;;4.18;;
37201;SDS011;37799;52.390;6.136;2022-11-15T09:03:29;9.63;;;3.55;;
37201;SDS011;37799;52.390;6.136;2022-11-15T09:05:55;10.23;;;3.55;;
37201;SDS011;37799;52.390;6.136;2022-11-15T09:08:22;11.60;;;4.03;;
37201;SDS011;37799;52.390;6.136;2022-11-15T09:10:47;10.75;;;3.50;;
37201;SDS011;37799;52.390;6.136;2022-11-15T09:13:13;9.35;;;3.63;;
37201;SDS011;37799;52.390;6.136;2022-11-15T09:15:39;9.73;;;3.33;;
37201;SDS011;37799;52.390;6.136;2022-11-15T09:18:04;8.73;;;3.55;;
37201;SDS011;37799;52.390;6.136;2022-11-15T09:20:29;9.55;;;3.42;;
37201;SDS011;37799;52.390;6.136;2022-11-15T09:22:55;9.07;;;3.60;;
37201;SDS011;37799;52.390;6.136;2022-11-15T09:25:24;9.43;;;3.55;;
37201;SDS011;37799;52.390;6.136;2022-11-15T09:27:49;9.35;;;3.42;;
37201;SDS011;37799;52.390;6.136;2022-11-15T09:30:15;10.38;;;3.38;;
37201;SDS011;37799;52.390;6.136;2022-11-15T09:32:40;10.65;;;2.85;;
37201;SDS011;37799;52.390;6.136;2022-11-15T09:35:06;9.93;;;3.72;;
37201;SDS011;37799;52.390;6.136;2022-11-15T09:37:31;8.75;;;3.33;;
37201;SDS011;37799;52.390;6.136;2022-11-15T09:39:57;9.57;;;3.30;;
37201;SDS011;37799;52.390;6.136;2022-11-15T09:42:30;10.10;;;3.25;;
37201;SDS011;37799;52.390;6.136;2022-11-15T09:53:09;12.13;;;3.88;;
37201;SDS011;37799;52.390;6.136;2022-11-15T09:55:53;8.38;;;2.78;;
37201;SDS011;37799;52.390;6.136;2022-11-15T10:01:12;14.05;;;2.55;;
37201;SDS011;37799;52.390;6.136;2022-11-15T10:03:45;9.32;;;3.38;;
37201;SDS011;37799;52.390;6.136;2022-11-15T10:06:16;11.27;;;3.40;;
37201;SDS011;37799;52.390;6.136;2022-11-15T10:11:24;10.73;;;3.20;;
37201;SDS011;37799;52.390;6.136;2022-11-15T10:13:59;8.70;;;3.08;;
37201;SDS011;37799;52.390;6.136;2022-11-15T10:16:41;10.15;;;3.25;;
37201;SDS011;37799;52.390;6.136;2022-11-15T10:19:21;8.90;;;2.97;;
37201;SDS011;37799;52.390;6.136;2022-11-15T10:24:34;7.63;;;2.72;;
37201;SDS011;37799;52.390;6.136;2022-11-15T10:27:15;9.82;;;2.20;;
37201;SDS011;37799;52.390;6.136;2022-11-15T10:29:48;7.97;;;2.72;;
37201;SDS011;37799;52.390;6.136;2022-11-15T10:32:16;7.72;;;2.53;;
37201;SDS011;37799;52.390;6.136;2022-11-15T10:34:43;8.55;;;2.03;;
37201;SDS011;37799;52.390;6.136;2022-11-15T10:37:09;7.00;;;2.08;;
37201;SDS011;37799;52.390;6.136;2022-11-15T10:39:35;6.53;;;2.10;;
37201;SDS011;37799;52.390;6.136;2022-11-15T10:44:52;7.20;;;1.83;;
37201;SDS011;37799;52.390;6.136;2022-11-15T10:47:28;7.57;;;2.08;;
37201;SDS011;37799;52.390;6.136;2022-11-15T10:50:06;6.53;;;1.63;;
37201;SDS011;37799;52.390;6.136;2022-11-15T10:52:52;7.18;;;1.83;;
37201;SDS011;37799;52.390;6.136;2022-11-15T10:55:22;5.43;;;1.70;;
37201;SDS011;37799;52.390;6.136;2022-11-15T10:58:02;6.60;;;2.00;;
37201;SDS011;37799;52.390;6.136;2022-11-15T11:00:44;6.65;;;1.98;;
37201;SDS011;37799;52.390;6.136;2022-11-15T11:03:29;6.45;;;1.58;;
37201;SDS011;37799;52.390;6.136;2022-11-15T11:06:04;5.82;;;1.40;;
37201;SDS011;37799;52.390;6.136;2022-11-15T11:08:35;6.30;;;1.73;;
37201;SDS011;37799;52.390;6.136;2022-11-15T11:11:00;5.75;;;1.52;;
37201;SDS011;37799;52.390;6.136;2022-11-15T11:13:28;5.50;;;1.73;;
37201;SDS011;37799;52.390;6.136;2022-11-15T11:16:18;6.53;;;2.10;;
37201;SDS011;37799;52.390;6.136;2022-11-15T11:21:49;6.18;;;1.40;;
37201;SDS011;37799;52.390;6.136;2022-11-15T11:24:53;5.30;;;1.42;;
37201;SDS011;37799;52.390;6.136;2022-11-15T11:30:13;5.93;;;1.30;;
37201;SDS011;37799;52.390;6.136;2022-11-15T11:40:41;4.45;;;1.08;;
37201;SDS011;37799;52.390;6.136;2022-11-15T11:43:32;4.22;;;1.10;;
37201;SDS011;37799;52.390;6.136;2022-11-15T11:51:39;2.33;;;0.60;;
37201;SDS011;37799;52.390;6.136;2022-11-15T11:54:12;2.47;;;0.88;;
37201;SDS011;37799;52.390;6.136;2022-11-15T11:56:50;2.50;;;0.50;;
37201;SDS011;37799;52.390;6.136;2022-11-15T12:02:18;1.90;;;0.40;;
37201;SDS011;37799;52.390;6.136;2022-11-15T12:04:53;1.70;;;0.50;;
37201;SDS011;37799;52.390;6.136;2022-11-15T12:07:33;1.95;;;0.60;;
37201;SDS011;37799;52.390;6.136;2022-11-15T12:10:04;1.80;;;0.47;;
37201;SDS011;37799;52.390;6.136;2022-11-15T12:16:00;4.53;;;0.50;;
37201;SDS011;37799;52.390;6.136;2022-11-15T12:18:32;3.25;;;0.50;;
37201;SDS011;37799;52.390;6.136;2022-11-15T12:23:39;1.27;;;0.35;;
37201;SDS011;37799;52.390;6.136;2022-11-15T12:26:11;1.70;;;0.60;;
37201;SDS011;37799;52.390;6.136;2022-11-15T12:28:51;2.25;;;0.30;;
37201;SDS011;37799;52.390;6.136;2022-11-15T12:33:57;1.55;;;0.20;;
37201;SDS011;37799;52.390;6.136;2022-11-15T12:39:01;1.03;;;0.20;;
37201;SDS011;37799;52.390;6.136;2022-11-15T12:41:31;1.30;;;0.20;;
37201;SDS011;37799;52.390;6.136;2022-11-15T12:44:00;1.02;;;0.20;;
37201;SDS011;37799;52.390;6.136;2022-11-15T12:49:02;2.50;;;0.30;;
37201;SDS011;37799;52.390;6.136;2022-11-15T12:56:47;1.35;;;0.28;;
37201;SDS011;37799;52.390;6.136;2022-11-15T13:02:41;1.95;;;0.30;;
37201;SDS011;37799;52.390;6.136;2022-11-15T13:12:58;2.28;;;0.17;;
37201;SDS011;37799;52.390;6.136;2022-11-15T13:15:31;3.65;;;0.20;;
37201;SDS011;37799;52.390;6.136;2022-11-15T13:18:18;1.00;;;0.20;;
37201;SDS011;37799;52.390;6.136;2022-11-15T13:20:58;1.20;;;0.30;;
37201;SDS011;37799;52.390;6.136;2022-11-15T13:23:23;1.23;;;0.10;;
37201;SDS011;37799;52.390;6.136;2022-11-15T13:33:52;1.08;;;0.10;;
37201;SDS011;37799;52.390;6.136;2022-11-15T13:36:20;1.00;;;0.25;;
37201;SDS011;37799;52.390;6.136;2022-11-15T13:38:55;0.95;;;0.10;;
37201;SDS011;37799;52.390;6.136;2022-11-15T13:41:24;0.40;;;0.00;;
37201;SDS011;37799;52.390;6.136;2022-11-15T13:43:51;0.38;;;0.05;;
37201;SDS011;37799;52.390;6.136;2022-11-15T13:46:22;1.75;;;0.17;;
37201;SDS011;37799;52.390;6.136;2022-11-15T13:51:24;0.77;;;0.22;;
37201;SDS011;37799;52.390;6.136;2022-11-15T13:57:05;1.23;;;0.17;;
37201;SDS011;37799;52.390;6.136;2022-11-15T13:59:44;1.55;;;0.10;;
37201;SDS011;37799;52.390;6.136;2022-11-15T14:02:19;1.27;;;0.30;;
37201;SDS011;37799;52.390;6.136;2022-11-15T14:04:53;2.15;;;0.20;;
37201;SDS011;37799;52.390;6.136;2022-11-15T14:07:22;0.70;;;0.15;;
37201;SDS011;37799;52.390;6.136;2022-11-15T14:09:50;1.05;;;0.10;;
37201;SDS011;37799;52.390;6.136;2022-11-15T14:12:21;3.08;;;0.20;;
37201;SDS011;37799;52.390;6.136;2022-11-15T14:14:49;0.90;;;0.10;;
37201;SDS011;37799;52.390;6.136;2022-11-15T14:19:55;0.97;;;0.10;;
37201;SDS011;37799;52.390;6.136;2022-11-15T14:22:28;2.72;;;0.40;;
37201;SDS011;37799;52.390;6.136;2022-11-15T14:25:05;1.15;;;0.20;;
37201;SDS011;37799;52.390;6.136;2022-11-15T14:27:38;2.67;;;0.20;;
37201;SDS011;37799;52.390;6.136;2022-11-15T14:30:04;1.60;;;0.30;;
37201;SDS011;37799;52.390;6.136;2022-11-15T14:32:43;1.05;;;0.10;;
37201;SDS011;37799;52.390;6.136;2022-11-15T14:35:13;3.40;;;0.17;;
37201;SDS011;37799;52.390;6.136;2022-11-15T14:37:41;2.10;;;0.20;;
37201;SDS011;37799;52.390;6.136;2022-11-15T14:40:08;3.30;;;0.22;;
37201;SDS011;37799;52.390;6.136;2022-11-15T14:42:38;1.17;;;0.20;;
37201;SDS011;37799;52.390;6.136;2022-11-15T14:45:09;1.30;;;0.20;;
37201;SDS011;37799;52.390;6.136;2022-11-15T14:47:38;5.40;;;0.73;;
37201;SDS011;37799;52.390;6.136;2022-11-15T14:50:03;1.13;;;0.20;;
37201;SDS011;37799;52.390;6.136;2022-11-15T14:52:30;2.83;;;0.50;;
37201;SDS011;37799;52.390;6.136;2022-11-15T14:55:01;1.35;;;0.35;;
37201;SDS011;37799;52.390;6.136;2022-11-15T14:57:28;2.63;;;0.40;;
37201;SDS011;37799;52.390;6.136;2022-11-15T14:59:54;1.20;;;0.30;;
37201;SDS011;37799;52.390;6.136;2022-11-15T15:02:20;2.03;;;0.40;;
37201;SDS011;37799;52.390;6.136;2022-11-15T15:04:48;5.03;;;0.50;;
37201;SDS011;37799;52.390;6.136;2022-11-15T15:07:14;3.28;;;0.30;;
37201;SDS011;37799;52.390;6.136;2022-11-15T15:09:40;2.15;;;0.32;;
37201;SDS011;37799;52.390;6.136;2022-11-15T15:12:16;1.20;;;0.20;;
37201;SDS011;37799;52.390;6.136;2022-11-15T15:14:45;7.32;;;1.58;;
37201;SDS011;37799;52.390;6.136;2022-11-15T15:17:11;12.07;;;3.83;;
37201;SDS011;37799;52.390;6.136;2022-11-15T15:19:37;8.32;;;2.42;;
37201;SDS011;37799;52.390;6.136;2022-11-15T15:22:02;5.68;;;1.23;;
37201;SDS011;37799;52.390;6.136;2022-11-15T15:24:27;7.72;;;0.50;;
37201;SDS011;37799;52.390;6.136;2022-11-15T15:26:53;3.38;;;0.43;;
37201;SDS011;37799;52.390;6.136;2022-11-15T15:29:18;2.45;;;0.40;;
37201;SDS011;37799;52.390;6.136;2022-11-15T15:31:43;3.25;;;0.40;;
37201;SDS011;37799;52.390;6.136;2022-11-15T15:34:08;2.55;;;0.40;;
37201;SDS011;37799;52.390;6.136;2022-11-15T15:36:34;1.38;;;0.20;;
37201;SDS011;37799;52.390;6.136;2022-11-15T15:38:59;4.88;;;0.47;;
37201;SDS011;37799;52.390;6.136;2022-11-15T15:41:24;2.28;;;0.20;;
37201;SDS011;37799;52.390;6.136;2022-11-15T15:43:49;2.33;;;0.30;;
37201;SDS011;37799;52.390;6.136;2022-11-15T15:46:16;12.07;;;2.70;;
37201;SDS011;37799;52.390;6.136;2022-11-15T15:48:42;3.50;;;0.70;;
37201;SDS011;37799;52.390;6.136;2022-11-15T15:51:08;4.30;;;0.50;;
37201;SDS011;37799;52.390;6.136;2022-11-15T15:53:33;3.97;;;0.85;;
37201;SDS011;37799;52.390;6.136;2022-11-15T15:55:59;2.53;;;0.47;;
37201;SDS011;37799;52.390;6.136;2022-11-15T15:58:24;3.65;;;0.60;;
37201;SDS011;37799;52.390;6.136;2022-11-15T16:00:50;1.90;;;0.52;;
37201;SDS011;37799;52.390;6.136;2022-11-15T16:03:16;1.90;;;0.50;;
37201;SDS011;37799;52.390;6.136;2022-11-15T16:05:41;4.85;;;0.85;;
37201;SDS011;37799;52.390;6.136;2022-11-15T16:08:11;1.20;;;0.22;;
37201;SDS011;37799;52.390;6.136;2022-11-15T16:10:49;2.53;;;0.38;;
37201;SDS011;37799;52.390;6.136;2022-11-15T16:13:14;1.25;;;0.30;;
37201;SDS011;37799;52.390;6.136;2022-11-15T16:15:40;2.15;;;0.22;;
37201;SDS011;37799;52.390;6.136;2022-11-15T16:18:08;8.05;;;1.33;;
37201;SDS011;37799;52.390;6.136;2022-11-15T16:20:40;0.95;;;0.20;;
37201;SDS011;37799;52.390;6.136;2022-11-15T16:23:10;4.28;;;0.65;;
37201;SDS011;37799;52.390;6.136;2022-11-15T16:25:47;5.63;;;1.20;;
37201;SDS011;37799;52.390;6.136;2022-11-15T16:28:19;2.60;;;0.47;;
37201;SDS011;37799;52.390;6.136;2022-11-15T16:30:47;1.92;;;0.45;;
37201;SDS011;37799;52.390;6.136;2022-11-15T16:33:13;0.98;;;0.20;;
37201;SDS011;37799;52.390;6.136;2022-11-15T16:35:39;0.70;;;0.20;;
37201;SDS011;37799;52.390;6.136;2022-11-15T16:38:04;1.90;;;0.20;;
37201;SDS011;37799;52.390;6.136;2022-11-15T16:40:31;1.80;;;0.20;;
37201;SDS011;37799;52.390;6.136;2022-11-15T16:42:58;3.10;;;0.30;;
37201;SDS011;37799;52.390;6.136;2022-11-15T16:45:26;1.63;;;0.30;;
37201;SDS011;37799;52.390;6.136;2022-11-15T16:47:53;2.53;;;0.70;;